N4RZ EHRD-EDDN
Flight info
| Callsign | N4RZ |
|---|---|
| Flight time | N/A |
| Altitude | 35000 |
| Route | LUNIX2A LUNIX Z739 MISGO DCT TIVUN DCT TESGA Z719 ETOLU Z723 RITUP/N0449F230 Z723 KOMIB T193 ERTES T194 DODAS DODAS1V |
| Aircraft | C700/M-VGD/A |
Departure
| Time | 2026-04-27 18:47 |
|---|---|
| Airport | Rotterdam The Hague Airport (EHRD) |
Arrival
| Time | N/A |
|---|---|
| Airport | Nuremberg Airport (EDDN) |
| Time | Latitude | Longitude | Altitude | Speed | Heading |
|---|---|---|---|---|---|
| 2026-04-27 18:32 | 51.95191 | 4.43403 | -5 ft | 0 kts | 327° |
| 2026-04-27 18:45 | 51.95192 | 4.43402 | -5 ft | 2 kts | 327° |
| 2026-04-27 18:45 | 51.95219 | 4.43354 | -5 ft | 4 kts | 272° |
| 2026-04-27 18:45 | 51.95186 | 4.43261 | -5 ft | 15 kts | 237° |
| 2026-04-27 18:46 | 51.95125 | 4.43083 | -5 ft | 16 kts | 244° |
| 2026-04-27 18:46 | 51.95106 | 4.42997 | -5 ft | 10 kts | 268° |
| 2026-04-27 18:46 | 51.95206 | 4.42857 | -4 ft | 13 kts | 349° |
| 2026-04-27 18:46 | 51.95253 | 4.42933 | -4 ft | 7 kts | 56° |
| 2026-04-27 18:47 | 51.95274 | 4.42985 | -4 ft | 29 kts | 56° |
| 2026-04-27 18:47 | 51.95568 | 4.43723 | -5 ft | 124 kts | 57° |
| 2026-04-27 18:47 | 51.95942 | 4.44663 | 160 ft | 164 kts | 57° |
| 2026-04-27 18:47 | 51.96781 | 4.46914 | 1593 ft | 187 kts | 63° |
| 2026-04-27 18:48 | 51.97169 | 4.48197 | 2454 ft | 196 kts | 63° |
| 2026-04-27 18:48 | 51.97863 | 4.50357 | 3426 ft | 227 kts | 60° |
| 2026-04-27 18:48 | 51.98629 | 4.52620 | 5028 ft | 231 kts | 59° |
| 2026-04-27 18:48 | 51.99413 | 4.54944 | 6651 ft | 237 kts | 59° |
| 2026-04-27 18:49 | 52.00454 | 4.57047 | 8203 ft | 242 kts | 41° |
| 2026-04-27 18:49 | 52.01850 | 4.58599 | 9807 ft | 245 kts | 25° |
| 2026-04-27 18:49 | 52.03408 | 4.59714 | 11310 ft | 244 kts | 22° |
| 2026-04-27 18:49 | 52.04915 | 4.60957 | 12804 ft | 246 kts | 32° |
| 2026-04-27 18:50 | 52.06296 | 4.62956 | 13225 ft | 293 kts | 49° |
| 2026-04-27 18:50 | 52.07196 | 4.66055 | 13234 ft | 300 kts | 79° |
| 2026-04-27 18:50 | 52.07014 | 4.69217 | 13230 ft | 270 kts | 109° |
| 2026-04-27 18:50 | 52.06210 | 4.72129 | 13254 ft | 307 kts | 116° |
| 2026-04-27 18:51 | 52.05333 | 4.75612 | 13254 ft | 359 kts | 108° |
| 2026-04-27 18:51 | 52.04691 | 4.79750 | 13254 ft | 382 kts | 102° |
| 2026-04-27 18:51 | 52.04230 | 4.83867 | 13696 ft | 356 kts | 99° |
| 2026-04-27 18:51 | 52.03800 | 4.87673 | 14309 ft | 329 kts | 102° |
| 2026-04-27 18:52 | 52.03266 | 4.91125 | 14952 ft | 301 kts | 105° |
| 2026-04-27 18:52 | 52.02729 | 4.94251 | 15621 ft | 275 kts | 105° |
| 2026-04-27 18:52 | 52.02288 | 4.97152 | 16537 ft | 255 kts | 103° |
| 2026-04-27 18:53 | 52.01455 | 5.02997 | 17440 ft | 255 kts | 104° |
| 2026-04-27 18:53 | 52.01043 | 5.05718 | 18745 ft | 243 kts | 105° |
| 2026-04-27 18:53 | 52.00643 | 5.08352 | 19836 ft | 238 kts | 106° |
| 2026-04-27 18:53 | 52.00247 | 5.10995 | 20624 ft | 244 kts | 106° |
| 2026-04-27 18:54 | 51.99842 | 5.13701 | 21435 ft | 248 kts | 107° |
| 2026-04-27 18:54 | 51.99433 | 5.16424 | 22319 ft | 247 kts | 107° |
| 2026-04-27 18:54 | 51.99029 | 5.19104 | 23164 ft | 248 kts | 107° |
| 2026-04-27 18:54 | 51.98619 | 5.21824 | 23981 ft | 249 kts | 108° |
| 2026-04-27 18:55 | 51.98206 | 5.24552 | 24682 ft | 249 kts | 108° |
| 2026-04-27 18:55 | 51.97790 | 5.27294 | 25244 ft | 258 kts | 108° |
| 2026-04-27 18:55 | 51.97321 | 5.30310 | 25244 ft | 293 kts | 108° |
| 2026-04-27 18:55 | 51.96794 | 5.33748 | 25246 ft | 328 kts | 107° |
| 2026-04-27 18:56 | 51.96245 | 5.37419 | 25665 ft | 329 kts | 107° |
| 2026-04-27 18:56 | 51.95742 | 5.40827 | 27206 ft | 301 kts | 107° |
| 2026-04-27 18:56 | 51.95258 | 5.43977 | 28653 ft | 275 kts | 108° |
| 2026-04-27 18:56 | 51.94803 | 5.46913 | 29844 ft | 256 kts | 109° |
| 2026-04-27 18:57 | 51.94379 | 5.49659 | 30605 ft | 250 kts | 109° |
| 2026-04-27 18:57 | 51.93958 | 5.52367 | 31066 ft | 251 kts | 109° |
| 2026-04-27 18:57 | 51.93535 | 5.55111 | 31524 ft | 251 kts | 109° |
| 2026-04-27 18:57 | 51.93109 | 5.57884 | 31906 ft | 254 kts | 109° |
| 2026-04-27 18:58 | 51.92674 | 5.60702 | 32364 ft | 257 kts | 109° |
| 2026-04-27 18:58 | 51.92227 | 5.63550 | 32605 ft | 270 kts | 109° |
| 2026-04-27 18:58 | 51.91756 | 5.66571 | 32887 ft | 283 kts | 109° |
| 2026-04-27 18:58 | 51.91267 | 5.69736 | 33185 ft | 295 kts | 109° |
| 2026-04-27 18:59 | 51.90747 | 5.73078 | 33236 ft | 318 kts | 108° |
| 2026-04-27 18:59 | 51.90179 | 5.76681 | 33249 ft | 343 kts | 108° |
| 2026-04-27 18:59 | 51.89570 | 5.80567 | 33240 ft | 368 kts | 108° |
| 2026-04-27 18:59 | 51.88923 | 5.84727 | 33236 ft | 393 kts | 107° |
| 2026-04-27 19:00 | 51.88182 | 5.89109 | 33207 ft | 413 kts | 115° |
| 2026-04-27 19:00 | 51.86689 | 5.93050 | 33577 ft | 413 kts | 135° |
| 2026-04-27 19:00 | 51.84706 | 5.96456 | 34026 ft | 418 kts | 142° |
| 2026-04-27 19:00 | 51.82590 | 5.99744 | 34419 ft | 427 kts | 141° |
| 2026-04-27 19:01 | 51.80549 | 6.03346 | 34775 ft | 441 kts | 134° |
| 2026-04-27 19:01 | 51.78656 | 6.07324 | 35145 ft | 451 kts | 130° |
| 2026-04-27 19:01 | 51.76778 | 6.11503 | 35207 ft | 468 kts | 130° |
| 2026-04-27 19:01 | 51.74737 | 6.15700 | 35219 ft | 483 kts | 134° |
| 2026-04-27 19:02 | 51.72504 | 6.19860 | 35223 ft | 499 kts | 135° |
| 2026-04-27 19:02 | 51.70205 | 6.24182 | 35219 ft | 516 kts | 133° |
| 2026-04-27 19:02 | 51.67953 | 6.28765 | 35219 ft | 523 kts | 131° |
| 2026-04-27 19:03 | 51.63449 | 6.37914 | 35181 ft | 518 kts | 135° |
| 2026-04-27 19:03 | 51.58876 | 6.46611 | 35198 ft | 506 kts | 134° |
| 2026-04-27 19:04 | 51.54456 | 6.55505 | 35194 ft | 508 kts | 134° |
| 2026-04-27 19:04 | 51.49917 | 6.64205 | 35189 ft | 507 kts | 135° |
| 2026-04-27 19:05 | 51.45493 | 6.72890 | 35191 ft | 505 kts | 133° |
| 2026-04-27 19:05 | 51.40987 | 6.81615 | 35189 ft | 511 kts | 135° |
| 2026-04-27 19:06 | 51.36455 | 6.90338 | 35173 ft | 506 kts | 134° |
| 2026-04-27 19:06 | 51.31942 | 6.99089 | 35184 ft | 512 kts | 135° |
| 2026-04-27 19:07 | 51.27391 | 7.07756 | 35183 ft | 507 kts | 135° |
| 2026-04-27 19:07 | 51.22867 | 7.16466 | 35172 ft | 510 kts | 135° |
| 2026-04-27 19:08 | 51.18282 | 7.25158 | 35177 ft | 513 kts | 135° |
| 2026-04-27 19:08 | 51.13719 | 7.33863 | 35172 ft | 509 kts | 134° |
| 2026-04-27 19:09 | 51.09153 | 7.42486 | 35157 ft | 510 kts | 135° |
| 2026-04-27 19:09 | 51.04562 | 7.51147 | 35175 ft | 513 kts | 134° |
| 2026-04-27 19:10 | 50.99980 | 7.59791 | 35170 ft | 510 kts | 135° |
| 2026-04-27 19:10 | 50.97766 | 7.64173 | 34984 ft | 510 kts | 120° |
| 2026-04-27 19:10 | 50.97367 | 7.66688 | 33644 ft | 459 kts | 69° |
| 2026-04-27 19:10 | 50.98333 | 7.70755 | 31014 ft | 317 kts | 81° |